sensor_id;sensor_type;location;lat;lon;timestamp;P1;durP1;ratioP1;P2;durP2;ratioP2
54937;SDS011;52756;52.826;6.214;2022-10-26T00:00:02;13.52;;;8.52;;
54937;SDS011;52756;52.826;6.214;2022-10-26T00:02:29;21.17;;;8.23;;
54937;SDS011;52756;52.826;6.214;2022-10-26T00:04:54;8.38;;;6.75;;
54937;SDS011;52756;52.826;6.214;2022-10-26T00:07:20;11.02;;;7.68;;
54937;SDS011;52756;52.826;6.214;2022-10-26T00:09:46;8.43;;;5.47;;
54937;SDS011;52756;52.826;6.214;2022-10-26T00:12:11;10.10;;;7.32;;
54937;SDS011;52756;52.826;6.214;2022-10-26T00:14:37;13.23;;;7.80;;
54937;SDS011;52756;52.826;6.214;2022-10-26T00:17:02;15.43;;;8.10;;
54937;SDS011;52756;52.826;6.214;2022-10-26T00:19:28;11.98;;;8.40;;
54937;SDS011;52756;52.826;6.214;2022-10-26T00:21:57;11.95;;;8.02;;
54937;SDS011;52756;52.826;6.214;2022-10-26T00:24:23;12.75;;;8.48;;
54937;SDS011;52756;52.826;6.214;2022-10-26T00:26:48;12.80;;;7.80;;
54937;SDS011;52756;52.826;6.214;2022-10-26T00:29:14;10.75;;;8.35;;
54937;SDS011;52756;52.826;6.214;2022-10-26T00:31:39;12.23;;;7.95;;
54937;SDS011;52756;52.826;6.214;2022-10-26T00:34:05;10.95;;;8.82;;
54937;SDS011;52756;52.826;6.214;2022-10-26T00:36:31;16.00;;;9.32;;
54937;SDS011;52756;52.826;6.214;2022-10-26T00:38:57;14.73;;;8.45;;
54937;SDS011;52756;52.826;6.214;2022-10-26T00:41:23;12.75;;;10.20;;
54937;SDS011;52756;52.826;6.214;2022-10-26T00:43:52;12.43;;;8.95;;
54937;SDS011;52756;52.826;6.214;2022-10-26T00:46:31;13.27;;;9.63;;
54937;SDS011;52756;52.826;6.214;2022-10-26T00:49:01;12.60;;;9.50;;
54937;SDS011;52756;52.826;6.214;2022-10-26T00:51:34;14.70;;;9.30;;
54937;SDS011;52756;52.826;6.214;2022-10-26T00:54:04;13.60;;;10.05;;
54937;SDS011;52756;52.826;6.214;2022-10-26T00:56:33;11.30;;;9.05;;
54937;SDS011;52756;52.826;6.214;2022-10-26T00:59:00;14.27;;;9.35;;
54937;SDS011;52756;52.826;6.214;2022-10-26T01:01:29;13.70;;;10.00;;
54937;SDS011;52756;52.826;6.214;2022-10-26T01:03:57;15.85;;;9.93;;
54937;SDS011;52756;52.826;6.214;2022-10-26T01:06:24;12.15;;;9.40;;
54937;SDS011;52756;52.826;6.214;2022-10-26T01:08:54;12.68;;;9.23;;
54937;SDS011;52756;52.826;6.214;2022-10-26T01:11:20;12.93;;;10.35;;
54937;SDS011;52756;52.826;6.214;2022-10-26T01:13:45;15.43;;;9.70;;
54937;SDS011;52756;52.826;6.214;2022-10-26T01:19:01;11.00;;;7.60;;
54937;SDS011;52756;52.826;6.214;2022-10-26T01:35:33;13.05;;;9.10;;
54937;SDS011;52756;52.826;6.214;2022-10-26T01:38:03;12.57;;;9.52;;
54937;SDS011;52756;52.826;6.214;2022-10-26T01:40:39;10.65;;;8.85;;
54937;SDS011;52756;52.826;6.214;2022-10-26T01:43:15;11.32;;;9.52;;
54937;SDS011;52756;52.826;6.214;2022-10-26T01:45:44;10.82;;;8.38;;
54937;SDS011;52756;52.826;6.214;2022-10-26T01:48:12;15.45;;;9.57;;
54937;SDS011;52756;52.826;6.214;2022-10-26T01:50:41;12.57;;;9.38;;
54937;SDS011;52756;52.826;6.214;2022-10-26T01:53:13;13.65;;;10.88;;
54937;SDS011;52756;52.826;6.214;2022-10-26T01:55:47;13.40;;;9.88;;
54937;SDS011;52756;52.826;6.214;2022-10-26T01:59:16;14.30;;;10.57;;
54937;SDS011;52756;52.826;6.214;2022-10-26T02:04:15;14.32;;;10.27;;
54937;SDS011;52756;52.826;6.214;2022-10-26T02:12:53;15.25;;;10.80;;
54937;SDS011;52756;52.826;6.214;2022-10-26T02:18:04;14.90;;;11.10;;
54937;SDS011;52756;52.826;6.214;2022-10-26T02:20:47;17.20;;;13.13;;
54937;SDS011;52756;52.826;6.214;2022-10-26T02:23:14;21.27;;;17.05;;
54937;SDS011;52756;52.826;6.214;2022-10-26T02:25:46;25.15;;;17.55;;
54937;SDS011;52756;52.826;6.214;2022-10-26T02:28:19;23.87;;;17.93;;
54937;SDS011;52756;52.826;6.214;2022-10-26T02:30:49;24.65;;;18.73;;
54937;SDS011;52756;52.826;6.214;2022-10-26T02:33:18;21.77;;;19.30;;
54937;SDS011;52756;52.826;6.214;2022-10-26T02:35:46;23.23;;;19.13;;
54937;SDS011;52756;52.826;6.214;2022-10-26T02:38:14;29.05;;;20.48;;
54937;SDS011;52756;52.826;6.214;2022-10-26T02:40:43;24.02;;;18.20;;
54937;SDS011;52756;52.826;6.214;2022-10-26T02:43:11;21.77;;;17.35;;
54937;SDS011;52756;52.826;6.214;2022-10-26T02:45:42;20.98;;;16.80;;
54937;SDS011;52756;52.826;6.214;2022-10-26T02:48:12;21.27;;;16.17;;
54937;SDS011;52756;52.826;6.214;2022-10-26T02:54:00;18.58;;;15.63;;
54937;SDS011;52756;52.826;6.214;2022-10-26T02:56:50;21.30;;;15.98;;
54937;SDS011;52756;52.826;6.214;2022-10-26T02:59:19;22.30;;;17.38;;
54937;SDS011;52756;52.826;6.214;2022-10-26T03:01:49;18.80;;;15.50;;
54937;SDS011;52756;52.826;6.214;2022-10-26T03:04:16;22.98;;;16.42;;
54937;SDS011;52756;52.826;6.214;2022-10-26T03:06:41;22.45;;;16.42;;
54937;SDS011;52756;52.826;6.214;2022-10-26T03:09:15;20.50;;;16.38;;
54937;SDS011;52756;52.826;6.214;2022-10-26T03:11:41;23.10;;;15.90;;
54937;SDS011;52756;52.826;6.214;2022-10-26T03:14:06;20.65;;;15.02;;
54937;SDS011;52756;52.826;6.214;2022-10-26T03:16:32;18.50;;;15.18;;
54937;SDS011;52756;52.826;6.214;2022-10-26T03:18:58;22.60;;;16.17;;
54937;SDS011;52756;52.826;6.214;2022-10-26T03:21:23;20.95;;;15.95;;
54937;SDS011;52756;52.826;6.214;2022-10-26T03:23:49;22.10;;;14.65;;
54937;SDS011;52756;52.826;6.214;2022-10-26T03:26:15;18.88;;;14.85;;
54937;SDS011;52756;52.826;6.214;2022-10-26T03:28:41;22.13;;;15.60;;
54937;SDS011;52756;52.826;6.214;2022-10-26T03:31:07;20.60;;;16.10;;
54937;SDS011;52756;52.826;6.214;2022-10-26T03:33:33;21.50;;;15.68;;
54937;SDS011;52756;52.826;6.214;2022-10-26T03:35:58;21.23;;;15.50;;
54937;SDS011;52756;52.826;6.214;2022-10-26T03:38:24;17.58;;;13.68;;
54937;SDS011;52756;52.826;6.214;2022-10-26T03:40:50;23.58;;;14.82;;
54937;SDS011;52756;52.826;6.214;2022-10-26T03:43:16;20.33;;;14.57;;
54937;SDS011;52756;52.826;6.214;2022-10-26T03:45:41;20.05;;;14.20;;
54937;SDS011;52756;52.826;6.214;2022-10-26T03:48:07;19.13;;;13.70;;
54937;SDS011;52756;52.826;6.214;2022-10-26T03:50:33;20.55;;;14.25;;
54937;SDS011;52756;52.826;6.214;2022-10-26T03:52:58;17.35;;;13.70;;
54937;SDS011;52756;52.826;6.214;2022-10-26T03:55:24;20.77;;;14.65;;
54937;SDS011;52756;52.826;6.214;2022-10-26T03:57:49;20.90;;;13.73;;
54937;SDS011;52756;52.826;6.214;2022-10-26T04:00:15;19.25;;;14.90;;
54937;SDS011;52756;52.826;6.214;2022-10-26T04:02:43;19.52;;;14.05;;
54937;SDS011;52756;52.826;6.214;2022-10-26T04:05:13;20.73;;;15.07;;
54937;SDS011;52756;52.826;6.214;2022-10-26T04:07:40;20.77;;;13.98;;
54937;SDS011;52756;52.826;6.214;2022-10-26T04:10:06;18.95;;;14.23;;
54937;SDS011;52756;52.826;6.214;2022-10-26T04:12:35;19.10;;;14.82;;
54937;SDS011;52756;52.826;6.214;2022-10-26T04:15:04;22.95;;;14.80;;
54937;SDS011;52756;52.826;6.214;2022-10-26T04:17:31;17.83;;;14.00;;
54937;SDS011;52756;52.826;6.214;2022-10-26T04:19:56;20.23;;;14.95;;
54937;SDS011;52756;52.826;6.214;2022-10-26T04:22:22;18.52;;;13.68;;
54937;SDS011;52756;52.826;6.214;2022-10-26T04:24:48;20.15;;;13.90;;
54937;SDS011;52756;52.826;6.214;2022-10-26T04:27:14;20.70;;;13.70;;
54937;SDS011;52756;52.826;6.214;2022-10-26T04:29:39;19.40;;;14.38;;
54937;SDS011;52756;52.826;6.214;2022-10-26T04:32:05;21.90;;;15.02;;
54937;SDS011;52756;52.826;6.214;2022-10-26T04:34:31;19.80;;;13.88;;
54937;SDS011;52756;52.826;6.214;2022-10-26T04:36:57;20.90;;;13.73;;
54937;SDS011;52756;52.826;6.214;2022-10-26T04:39:23;16.52;;;13.82;;
54937;SDS011;52756;52.826;6.214;2022-10-26T04:41:49;19.50;;;13.93;;
54937;SDS011;52756;52.826;6.214;2022-10-26T04:44:15;21.67;;;14.20;;
54937;SDS011;52756;52.826;6.214;2022-10-26T04:46:41;18.50;;;13.20;;
54937;SDS011;52756;52.826;6.214;2022-10-26T04:49:06;18.70;;;13.88;;
54937;SDS011;52756;52.826;6.214;2022-10-26T04:51:32;17.67;;;14.25;;
54937;SDS011;52756;52.826;6.214;2022-10-26T04:53:58;18.67;;;12.48;;
54937;SDS011;52756;52.826;6.214;2022-10-26T04:56:23;17.20;;;13.70;;
54937;SDS011;52756;52.826;6.214;2022-10-26T04:58:52;20.08;;;13.43;;
54937;SDS011;52756;52.826;6.214;2022-10-26T05:01:18;18.88;;;14.23;;
54937;SDS011;52756;52.826;6.214;2022-10-26T05:03:43;17.27;;;13.25;;
54937;SDS011;52756;52.826;6.214;2022-10-26T05:06:12;17.50;;;14.10;;
54937;SDS011;52756;52.826;6.214;2022-10-26T05:08:38;22.27;;;14.05;;
54937;SDS011;52756;52.826;6.214;2022-10-26T05:11:03;18.20;;;13.18;;
54937;SDS011;52756;52.826;6.214;2022-10-26T05:13:29;20.58;;;13.73;;
54937;SDS011;52756;52.826;6.214;2022-10-26T05:15:55;18.92;;;13.38;;
54937;SDS011;52756;52.826;6.214;2022-10-26T05:18:20;16.95;;;13.07;;
54937;SDS011;52756;52.826;6.214;2022-10-26T05:20:46;16.42;;;13.02;;
54937;SDS011;52756;52.826;6.214;2022-10-26T05:23:14;18.58;;;13.02;;
54937;SDS011;52756;52.826;6.214;2022-10-26T05:25:42;15.65;;;12.57;;
54937;SDS011;52756;52.826;6.214;2022-10-26T05:28:09;16.58;;;13.20;;
54937;SDS011;52756;52.826;6.214;2022-10-26T05:30:37;17.67;;;13.15;;
54937;SDS011;52756;52.826;6.214;2022-10-26T05:33:03;16.40;;;12.32;;
54937;SDS011;52756;52.826;6.214;2022-10-26T05:35:30;19.17;;;11.60;;
54937;SDS011;52756;52.826;6.214;2022-10-26T05:37:56;17.63;;;13.23;;
54937;SDS011;52756;52.826;6.214;2022-10-26T05:40:22;18.02;;;12.25;;
54937;SDS011;52756;52.826;6.214;2022-10-26T05:42:48;16.00;;;12.85;;
54937;SDS011;52756;52.826;6.214;2022-10-26T05:45:15;16.00;;;11.50;;
54937;SDS011;52756;52.826;6.214;2022-10-26T05:47:43;17.65;;;13.52;;
54937;SDS011;52756;52.826;6.214;2022-10-26T05:50:09;17.27;;;12.02;;
54937;SDS011;52756;52.826;6.214;2022-10-26T05:52:43;20.50;;;13.77;;
54937;SDS011;52756;52.826;6.214;2022-10-26T05:55:11;19.10;;;12.85;;
54937;SDS011;52756;52.826;6.214;2022-10-26T05:57:38;16.08;;;12.18;;
54937;SDS011;52756;52.826;6.214;2022-10-26T06:00:09;18.77;;;11.55;;
54937;SDS011;52756;52.826;6.214;2022-10-26T06:08:19;13.98;;;11.60;;
54937;SDS011;52756;52.826;6.214;2022-10-26T06:10:47;15.32;;;11.25;;
54937;SDS011;52756;52.826;6.214;2022-10-26T06:13:14;16.30;;;11.30;;
54937;SDS011;52756;52.826;6.214;2022-10-26T06:23:56;13.70;;;9.60;;
54937;SDS011;52756;52.826;6.214;2022-10-26T06:26:31;14.52;;;10.82;;
54937;SDS011;52756;52.826;6.214;2022-10-26T06:29:16;16.50;;;11.10;;
54937;SDS011;52756;52.826;6.214;2022-10-26T06:31:52;15.30;;;10.43;;
54937;SDS011;52756;52.826;6.214;2022-10-26T06:34:21;14.85;;;10.10;;
54937;SDS011;52756;52.826;6.214;2022-10-26T06:36:51;12.70;;;11.07;;
54937;SDS011;52756;52.826;6.214;2022-10-26T06:39:17;13.30;;;9.70;;
54937;SDS011;52756;52.826;6.214;2022-10-26T06:41:44;12.40;;;9.65;;
54937;SDS011;52756;52.826;6.214;2022-10-26T06:44:11;14.90;;;10.20;;
54937;SDS011;52756;52.826;6.214;2022-10-26T06:52:01;15.95;;;9.68;;
54937;SDS011;52756;52.826;6.214;2022-10-26T06:54:47;14.23;;;9.30;;
54937;SDS011;52756;52.826;6.214;2022-10-26T06:57:18;12.27;;;9.38;;
54937;SDS011;52756;52.826;6.214;2022-10-26T07:02:18;12.45;;;8.60;;
54937;SDS011;52756;52.826;6.214;2022-10-26T07:04:44;15.45;;;8.95;;
54937;SDS011;52756;52.826;6.214;2022-10-26T07:07:11;13.00;;;8.77;;
54937;SDS011;52756;52.826;6.214;2022-10-26T07:09:43;13.93;;;8.80;;
54937;SDS011;52756;52.826;6.214;2022-10-26T07:12:09;15.27;;;8.75;;
54937;SDS011;52756;52.826;6.214;2022-10-26T07:14:35;12.43;;;8.30;;
54937;SDS011;52756;52.826;6.214;2022-10-26T07:17:01;11.63;;;8.13;;
54937;SDS011;52756;52.826;6.214;2022-10-26T07:19:26;13.00;;;8.30;;
54937;SDS011;52756;52.826;6.214;2022-10-26T07:21:53;13.40;;;8.80;;
54937;SDS011;52756;52.826;6.214;2022-10-26T07:24:20;12.38;;;8.80;;
54937;SDS011;52756;52.826;6.214;2022-10-26T07:26:47;12.98;;;8.20;;
54937;SDS011;52756;52.826;6.214;2022-10-26T07:29:13;10.07;;;8.05;;
54937;SDS011;52756;52.826;6.214;2022-10-26T07:31:40;15.20;;;8.60;;
54937;SDS011;52756;52.826;6.214;2022-10-26T07:34:06;11.40;;;8.40;;
54937;SDS011;52756;52.826;6.214;2022-10-26T07:36:31;11.80;;;7.70;;
54937;SDS011;52756;52.826;6.214;2022-10-26T07:39:00;11.55;;;7.72;;
54937;SDS011;52756;52.826;6.214;2022-10-26T07:41:27;12.73;;;7.38;;
54937;SDS011;52756;52.826;6.214;2022-10-26T07:43:53;12.50;;;8.25;;
54937;SDS011;52756;52.826;6.214;2022-10-26T07:46:18;10.57;;;7.65;;
54937;SDS011;52756;52.826;6.214;2022-10-26T07:48:44;14.05;;;8.13;;
54937;SDS011;52756;52.826;6.214;2022-10-26T07:51:09;10.80;;;6.88;;
54937;SDS011;52756;52.826;6.214;2022-10-26T07:53:35;10.23;;;7.95;;
54937;SDS011;52756;52.826;6.214;2022-10-26T07:56:01;11.02;;;7.10;;
54937;SDS011;52756;52.826;6.214;2022-10-26T07:58:27;10.63;;;7.18;;
54937;SDS011;52756;52.826;6.214;2022-10-26T08:00:53;12.35;;;6.72;;
54937;SDS011;52756;52.826;6.214;2022-10-26T08:03:19;12.27;;;7.13;;
54937;SDS011;52756;52.826;6.214;2022-10-26T08:05:45;9.80;;;6.85;;
54937;SDS011;52756;52.826;6.214;2022-10-26T08:08:20;10.80;;;7.47;;
54937;SDS011;52756;52.826;6.214;2022-10-26T08:10:46;11.10;;;7.30;;
54937;SDS011;52756;52.826;6.214;2022-10-26T08:13:12;10.68;;;6.88;;
54937;SDS011;52756;52.826;6.214;2022-10-26T08:15:38;9.68;;;6.60;;
54937;SDS011;52756;52.826;6.214;2022-10-26T08:18:04;10.13;;;6.03;;
54937;SDS011;52756;52.826;6.214;2022-10-26T08:20:30;12.07;;;6.80;;
54937;SDS011;52756;52.826;6.214;2022-10-26T08:22:56;11.07;;;6.40;;
54937;SDS011;52756;52.826;6.214;2022-10-26T08:25:22;11.48;;;6.10;;
54937;SDS011;52756;52.826;6.214;2022-10-26T08:27:48;11.23;;;6.07;;
54937;SDS011;52756;52.826;6.214;2022-10-26T08:30:14;10.43;;;6.00;;
54937;SDS011;52756;52.826;6.214;2022-10-26T08:32:40;12.75;;;6.50;;
54937;SDS011;52756;52.826;6.214;2022-10-26T08:35:08;7.75;;;5.63;;
54937;SDS011;52756;52.826;6.214;2022-10-26T08:37:36;8.63;;;5.38;;
54937;SDS011;52756;52.826;6.214;2022-10-26T08:40:02;9.20;;;5.22;;
54937;SDS011;52756;52.826;6.214;2022-10-26T08:42:31;8.50;;;5.32;;
54937;SDS011;52756;52.826;6.214;2022-10-26T08:45:08;7.35;;;5.00;;
54937;SDS011;52756;52.826;6.214;2022-10-26T08:47:41;7.50;;;5.30;;
54937;SDS011;52756;52.826;6.214;2022-10-26T08:52:51;8.25;;;5.00;;
54937;SDS011;52756;52.826;6.214;2022-10-26T08:55:30;9.02;;;4.78;;
54937;SDS011;52756;52.826;6.214;2022-10-26T08:58:02;10.02;;;5.68;;
54937;SDS011;52756;52.826;6.214;2022-10-26T09:00:32;6.68;;;4.50;;
54937;SDS011;52756;52.826;6.214;2022-10-26T09:02:58;9.57;;;4.88;;
54937;SDS011;52756;52.826;6.214;2022-10-26T09:05:37;8.98;;;4.72;;
54937;SDS011;52756;52.826;6.214;2022-10-26T09:08:19;9.45;;;5.32;;
54937;SDS011;52756;52.826;6.214;2022-10-26T09:13:48;10.82;;;4.47;;
54937;SDS011;52756;52.826;6.214;2022-10-26T09:16:44;6.90;;;4.47;;
54937;SDS011;52756;52.826;6.214;2022-10-26T09:19:20;6.97;;;4.28;;
54937;SDS011;52756;52.826;6.214;2022-10-26T09:22:11;7.35;;;4.78;;
54937;SDS011;52756;52.826;6.214;2022-10-26T09:24:41;17.83;;;8.00;;
54937;SDS011;52756;52.826;6.214;2022-10-26T09:27:25;6.32;;;4.35;;
54937;SDS011;52756;52.826;6.214;2022-10-26T09:29:52;9.85;;;4.15;;
54937;SDS011;52756;52.826;6.214;2022-10-26T09:32:26;7.03;;;4.65;;
54937;SDS011;52756;52.826;6.214;2022-10-26T09:35:04;7.10;;;3.70;;
54937;SDS011;52756;52.826;6.214;2022-10-26T09:37:43;8.20;;;4.00;;
54937;SDS011;52756;52.826;6.214;2022-10-26T09:45:32;6.63;;;4.10;;
54937;SDS011;52756;52.826;6.214;2022-10-26T09:48:10;6.05;;;3.78;;
54937;SDS011;52756;52.826;6.214;2022-10-26T09:50:38;7.28;;;3.63;;
54937;SDS011;52756;52.826;6.214;2022-10-26T09:53:06;7.22;;;3.90;;
54937;SDS011;52756;52.826;6.214;2022-10-26T09:55:32;7.45;;;3.67;;
54937;SDS011;52756;52.826;6.214;2022-10-26T09:58:03;6.35;;;4.63;;
54937;SDS011;52756;52.826;6.214;2022-10-26T10:00:34;6.25;;;3.58;;
54937;SDS011;52756;52.826;6.214;2022-10-26T10:03:02;7.68;;;3.58;;
54937;SDS011;52756;52.826;6.214;2022-10-26T10:05:40;5.85;;;2.90;;
54937;SDS011;52756;52.826;6.214;2022-10-26T10:08:12;5.00;;;2.60;;
54937;SDS011;52756;52.826;6.214;2022-10-26T10:11:02;6.10;;;2.88;;
54937;SDS011;52756;52.826;6.214;2022-10-26T10:13:35;8.30;;;3.00;;
54937;SDS011;52756;52.826;6.214;2022-10-26T10:16:09;6.47;;;2.80;;
54937;SDS011;52756;52.826;6.214;2022-10-26T10:18:36;6.38;;;3.40;;
54937;SDS011;52756;52.826;6.214;2022-10-26T10:21:04;7.40;;;2.70;;
54937;SDS011;52756;52.826;6.214;2022-10-26T10:23:33;6.68;;;2.75;;
54937;SDS011;52756;52.826;6.214;2022-10-26T10:28:28;5.68;;;2.40;;
54937;SDS011;52756;52.826;6.214;2022-10-26T10:31:00;6.35;;;2.40;;
54937;SDS011;52756;52.826;6.214;2022-10-26T10:33:40;7.07;;;2.60;;
54937;SDS011;52756;52.826;6.214;2022-10-26T10:36:08;6.93;;;2.83;;
54937;SDS011;52756;52.826;6.214;2022-10-26T10:38:38;7.65;;;3.50;;
54937;SDS011;52756;52.826;6.214;2022-10-26T10:41:05;7.95;;;3.33;;
54937;SDS011;52756;52.826;6.214;2022-10-26T10:44:00;7.43;;;2.92;;
54937;SDS011;52756;52.826;6.214;2022-10-26T10:46:31;7.75;;;2.78;;
54937;SDS011;52756;52.826;6.214;2022-10-26T10:49:05;7.25;;;3.00;;
54937;SDS011;52756;52.826;6.214;2022-10-26T10:51:41;8.93;;;3.25;;
54937;SDS011;52756;52.826;6.214;2022-10-26T10:54:26;8.02;;;2.90;;
54937;SDS011;52756;52.826;6.214;2022-10-26T11:08:26;7.32;;;2.60;;
54937;SDS011;52756;52.826;6.214;2022-10-26T11:10:50;7.18;;;2.70;;
54937;SDS011;52756;52.826;6.214;2022-10-26T11:13:38;7.15;;;2.72;;
54937;SDS011;52756;52.826;6.214;2022-10-26T11:16:43;5.82;;;2.60;;
54937;SDS011;52756;52.826;6.214;2022-10-26T11:21:53;5.90;;;2.53;;
54937;SDS011;52756;52.826;6.214;2022-10-26T11:24:25;6.68;;;2.75;;
54937;SDS011;52756;52.826;6.214;2022-10-26T11:27:14;8.15;;;3.10;;
54937;SDS011;52756;52.826;6.214;2022-10-26T11:32:53;6.00;;;2.95;;
54937;SDS011;52756;52.826;6.214;2022-10-26T11:38:15;7.05;;;3.10;;
54937;SDS011;52756;52.826;6.214;2022-10-26T11:40:52;5.95;;;2.83;;
54937;SDS011;52756;52.826;6.214;2022-10-26T11:43:40;6.55;;;2.92;;
54937;SDS011;52756;52.826;6.214;2022-10-26T11:46:20;5.45;;;2.72;;
54937;SDS011;52756;52.826;6.214;2022-10-26T11:48:55;4.05;;;2.22;;
54937;SDS011;52756;52.826;6.214;2022-10-26T11:51:51;5.80;;;3.10;;
54937;SDS011;52756;52.826;6.214;2022-10-26T11:54:54;6.47;;;2.70;;
54937;SDS011;52756;52.826;6.214;2022-10-26T11:57:24;5.88;;;2.63;;
54937;SDS011;52756;52.826;6.214;2022-10-26T11:59:57;6.45;;;2.85;;
54937;SDS011;52756;52.826;6.214;2022-10-26T12:02:29;4.93;;;2.63;;
54937;SDS011;52756;52.826;6.214;2022-10-26T12:05:01;5.43;;;2.90;;
54937;SDS011;52756;52.826;6.214;2022-10-26T12:07:33;5.07;;;2.58;;
54937;SDS011;52756;52.826;6.214;2022-10-26T12:10:02;6.10;;;2.85;;
54937;SDS011;52756;52.826;6.214;2022-10-26T12:12:45;5.40;;;2.53;;
54937;SDS011;52756;52.826;6.214;2022-10-26T12:15:24;6.85;;;3.28;;
54937;SDS011;52756;52.826;6.214;2022-10-26T12:21:07;7.45;;;3.17;;
54937;SDS011;52756;52.826;6.214;2022-10-26T12:23:52;5.88;;;2.83;;
54937;SDS011;52756;52.826;6.214;2022-10-26T12:29:12;4.40;;;3.60;;
54937;SDS011;52756;52.826;6.214;2022-10-26T12:34:04;7.28;;;3.25;;
54937;SDS011;52756;52.826;6.214;2022-10-26T12:36:48;9.00;;;3.60;;
54937;SDS011;52756;52.826;6.214;2022-10-26T12:39:27;6.07;;;3.20;;
54937;SDS011;52756;52.826;6.214;2022-10-26T12:44:31;6.72;;;3.45;;
54937;SDS011;52756;52.826;6.214;2022-10-26T12:46:57;9.00;;;4.43;;
54937;SDS011;52756;52.826;6.214;2022-10-26T12:52:48;9.32;;;3.80;;
54937;SDS011;52756;52.826;6.214;2022-10-26T12:55:17;7.55;;;3.90;;
54937;SDS011;52756;52.826;6.214;2022-10-26T13:00:40;5.35;;;2.90;;
54937;SDS011;52756;52.826;6.214;2022-10-26T13:08:36;5.50;;;3.88;;
54937;SDS011;52756;52.826;6.214;2022-10-26T13:11:18;7.32;;;3.60;;
54937;SDS011;52756;52.826;6.214;2022-10-26T13:14:00;6.70;;;3.70;;
54937;SDS011;52756;52.826;6.214;2022-10-26T13:16:28;6.53;;;3.20;;
54937;SDS011;52756;52.826;6.214;2022-10-26T13:18:54;6.45;;;3.28;;
54937;SDS011;52756;52.826;6.214;2022-10-26T13:21:22;5.40;;;3.67;;
54937;SDS011;52756;52.826;6.214;2022-10-26T13:26:19;5.70;;;3.67;;
54937;SDS011;52756;52.826;6.214;2022-10-26T13:28:50;8.80;;;4.05;;
54937;SDS011;52756;52.826;6.214;2022-10-26T13:34:38;5.82;;;3.33;;
54937;SDS011;52756;52.826;6.214;2022-10-26T13:36:47;6.80;;;3.70;;
54937;SDS011;52756;52.826;6.214;2022-10-26T13:39:16;8.30;;;4.30;;
54937;SDS011;52756;52.826;6.214;2022-10-26T13:41:45;6.75;;;4.18;;
54937;SDS011;52756;52.826;6.214;2022-10-26T13:44:15;6.85;;;3.92;;
54937;SDS011;52756;52.826;6.214;2022-10-26T13:47:08;6.95;;;4.28;;
54937;SDS011;52756;52.826;6.214;2022-10-26T13:49:42;7.78;;;4.32;;
54937;SDS011;52756;52.826;6.214;2022-10-26T13:52:15;7.78;;;4.65;;
54937;SDS011;52756;52.826;6.214;2022-10-26T13:54:58;7.82;;;4.78;;
54937;SDS011;52756;52.826;6.214;2022-10-26T13:57:31;6.75;;;4.50;;
54937;SDS011;52756;52.826;6.214;2022-10-26T14:00:19;7.03;;;4.28;;
54937;SDS011;52756;52.826;6.214;2022-10-26T14:02:47;6.93;;;4.95;;
54937;SDS011;52756;52.826;6.214;2022-10-26T14:05:14;10.50;;;5.50;;
54937;SDS011;52756;52.826;6.214;2022-10-26T14:10:31;8.68;;;5.10;;
54937;SDS011;52756;52.826;6.214;2022-10-26T14:13:05;6.80;;;4.95;;
54937;SDS011;52756;52.826;6.214;2022-10-26T14:15:33;6.55;;;5.07;;
54937;SDS011;52756;52.826;6.214;2022-10-26T14:18:00;7.85;;;5.40;;
54937;SDS011;52756;52.826;6.214;2022-10-26T14:20:28;8.20;;;5.60;;
54937;SDS011;52756;52.826;6.214;2022-10-26T14:22:55;8.05;;;4.40;;
54937;SDS011;52756;52.826;6.214;2022-10-26T14:27:55;6.80;;;4.97;;
54937;SDS011;52756;52.826;6.214;2022-10-26T14:30:26;8.73;;;5.15;;
54937;SDS011;52756;52.826;6.214;2022-10-26T14:32:54;11.00;;;5.90;;
54937;SDS011;52756;52.826;6.214;2022-10-26T14:35:28;7.60;;;4.70;;
54937;SDS011;52756;52.826;6.214;2022-10-26T14:38:04;6.75;;;4.32;;
54937;SDS011;52756;52.826;6.214;2022-10-26T14:40:53;6.88;;;4.78;;
54937;SDS011;52756;52.826;6.214;2022-10-26T14:43:21;8.43;;;4.30;;
54937;SDS011;52756;52.826;6.214;2022-10-26T14:45:49;7.30;;;4.20;;
54937;SDS011;52756;52.826;6.214;2022-10-26T14:48:21;7.85;;;4.78;;
54937;SDS011;52756;52.826;6.214;2022-10-26T14:53:28;4.75;;;3.50;;
54937;SDS011;52756;52.826;6.214;2022-10-26T14:55:57;4.70;;;3.40;;
54937;SDS011;52756;52.826;6.214;2022-10-26T14:58:27;9.20;;;4.60;;
54937;SDS011;52756;52.826;6.214;2022-10-26T15:01:13;6.38;;;3.72;;
54937;SDS011;52756;52.826;6.214;2022-10-26T15:03:50;7.43;;;3.40;;
54937;SDS011;52756;52.826;6.214;2022-10-26T15:08:54;5.47;;;3.85;;
54937;SDS011;52756;52.826;6.214;2022-10-26T15:11:20;6.55;;;3.88;;
54937;SDS011;52756;52.826;6.214;2022-10-26T15:13:46;6.93;;;4.25;;
54937;SDS011;52756;52.826;6.214;2022-10-26T15:18:45;7.47;;;4.45;;
54937;SDS011;52756;52.826;6.214;2022-10-26T15:21:36;4.63;;;3.50;;
54937;SDS011;52756;52.826;6.214;2022-10-26T15:26:44;5.05;;;3.58;;
54937;SDS011;52756;52.826;6.214;2022-10-26T15:31:59;5.43;;;3.30;;
54937;SDS011;52756;52.826;6.214;2022-10-26T15:34:25;5.40;;;3.30;;
54937;SDS011;52756;52.826;6.214;2022-10-26T15:36:51;4.25;;;2.70;;
54937;SDS011;52756;52.826;6.214;2022-10-26T15:39:16;5.72;;;3.83;;
54937;SDS011;52756;52.826;6.214;2022-10-26T15:41:46;4.90;;;3.55;;
54937;SDS011;52756;52.826;6.214;2022-10-26T15:44:14;4.00;;;2.88;;
54937;SDS011;52756;52.826;6.214;2022-10-26T15:46:42;6.78;;;3.03;;
54937;SDS011;52756;52.826;6.214;2022-10-26T15:49:14;8.77;;;2.92;;
54937;SDS011;52756;52.826;6.214;2022-10-26T15:51:42;5.07;;;2.78;;
54937;SDS011;52756;52.826;6.214;2022-10-26T15:54:11;5.40;;;2.90;;
54937;SDS011;52756;52.826;6.214;2022-10-26T15:56:37;7.03;;;3.50;;
54937;SDS011;52756;52.826;6.214;2022-10-26T15:59:16;7.35;;;2.45;;
54937;SDS011;52756;52.826;6.214;2022-10-26T16:01:43;4.47;;;2.60;;
54937;SDS011;52756;52.826;6.214;2022-10-26T16:04:09;12.15;;;3.30;;
54937;SDS011;52756;52.826;6.214;2022-10-26T16:06:39;5.82;;;2.65;;
54937;SDS011;52756;52.826;6.214;2022-10-26T16:09:06;7.28;;;3.15;;
54937;SDS011;52756;52.826;6.214;2022-10-26T16:11:39;5.68;;;2.67;;
54937;SDS011;52756;52.826;6.214;2022-10-26T16:14:05;5.90;;;3.08;;
54937;SDS011;52756;52.826;6.214;2022-10-26T16:16:31;4.75;;;2.90;;
54937;SDS011;52756;52.826;6.214;2022-10-26T16:18:57;6.18;;;3.13;;
54937;SDS011;52756;52.826;6.214;2022-10-26T16:21:23;4.82;;;2.97;;
54937;SDS011;52756;52.826;6.214;2022-10-26T16:23:50;5.97;;;2.88;;
54937;SDS011;52756;52.826;6.214;2022-10-26T16:26:17;4.53;;;2.70;;
54937;SDS011;52756;52.826;6.214;2022-10-26T16:28:44;6.30;;;2.88;;
54937;SDS011;52756;52.826;6.214;2022-10-26T16:31:10;7.00;;;3.20;;
54937;SDS011;52756;52.826;6.214;2022-10-26T16:33:37;5.88;;;3.10;;
54937;SDS011;52756;52.826;6.214;2022-10-26T16:36:03;5.93;;;2.97;;
54937;SDS011;52756;52.826;6.214;2022-10-26T16:38:30;6.78;;;4.03;;
54937;SDS011;52756;52.826;6.214;2022-10-26T16:41:00;8.82;;;2.97;;
54937;SDS011;52756;52.826;6.214;2022-10-26T16:43:34;5.43;;;2.67;;
54937;SDS011;52756;52.826;6.214;2022-10-26T16:46:15;6.43;;;3.03;;
54937;SDS011;52756;52.826;6.214;2022-10-26T16:48:43;7.60;;;3.50;;
54937;SDS011;52756;52.826;6.214;2022-10-26T16:53:37;6.60;;;3.20;;
54937;SDS011;52756;52.826;6.214;2022-10-26T16:56:10;6.20;;;3.67;;
54937;SDS011;52756;52.826;6.214;2022-10-26T16:58:38;8.38;;;3.28;;
54937;SDS011;52756;52.826;6.214;2022-10-26T17:01:05;7.80;;;3.83;;
54937;SDS011;52756;52.826;6.214;2022-10-26T17:03:31;6.03;;;3.08;;
54937;SDS011;52756;52.826;6.214;2022-10-26T17:05:58;4.82;;;3.03;;
54937;SDS011;52756;52.826;6.214;2022-10-26T17:08:25;5.07;;;2.97;;